createdAt,value
2018-12-07T00:01:53.639Z,11.16
2018-12-07T00:06:07.654Z,11.19
2018-12-07T00:10:21.320Z,11.18
2018-12-07T00:14:34.958Z,11.17
2018-12-07T00:18:46.861Z,11.17
2018-12-07T00:23:03.593Z,11.15
2018-12-07T00:27:15.968Z,11.19
2018-12-07T00:31:29.358Z,11.19
2018-12-07T00:35:42.920Z,11.18
2018-12-07T00:39:59.391Z,11.20
2018-12-07T00:44:09.314Z,11.20
2018-12-07T00:48:26.480Z,11.22
2018-12-07T00:52:42.025Z,11.22
2018-12-07T00:56:53.716Z,11.21
2018-12-07T01:01:07.209Z,11.23
2018-12-07T01:05:19.083Z,11.23
2018-12-07T01:09:29.183Z,11.23
2018-12-07T01:13:44.636Z,11.23
2018-12-07T01:17:51.561Z,11.25
2018-12-07T01:22:03.951Z,11.21
2018-12-07T01:26:16.678Z,11.20
2018-12-07T01:30:28.465Z,11.20
2018-12-07T01:34:59.621Z,11.19
2018-12-07T01:39:17.054Z,11.19
2018-12-07T01:43:36.280Z,11.18
2018-12-07T01:47:54.058Z,11.18
2018-12-07T01:52:07.702Z,11.17
2018-12-07T01:56:23.047Z,11.17
2018-12-07T02:00:41.389Z,11.16
2018-12-07T02:04:51.448Z,11.19
2018-12-07T02:09:03.378Z,11.17
2018-12-07T02:13:21.564Z,11.16
2018-12-07T02:17:37.074Z,11.19
2018-12-07T02:21:51.886Z,11.20
2018-12-07T02:26:01.995Z,11.19
2018-12-07T02:30:18.003Z,11.17
2018-12-07T02:34:28.835Z,11.19
2018-12-07T02:38:37.061Z,11.16
2018-12-07T02:42:53.171Z,11.17
2018-12-07T02:47:08.937Z,11.18
2018-12-07T02:51:24.615Z,11.19
2018-12-07T02:55:32.429Z,11.17
2018-12-07T02:59:41.597Z,11.18
2018-12-07T03:08:53.858Z,11.16
2018-12-07T03:13:06.760Z,11.18
2018-12-07T03:17:16.677Z,11.19
2018-12-07T03:21:27.461Z,11.19
2018-12-07T03:25:43.273Z,11.17
2018-12-07T03:29:56.161Z,11.19
2018-12-07T03:34:07.334Z,11.19
2018-12-07T03:38:27.045Z,11.20
2018-12-07T03:42:49.792Z,11.17
2018-12-07T03:47:07.881Z,11.16
2018-12-07T03:51:25.159Z,11.16
2018-12-07T03:55:37.140Z,11.15
2018-12-07T03:59:59.593Z,11.13
2018-12-07T04:04:12.409Z,11.16
2018-12-07T04:08:29.804Z,11.13
2018-12-07T04:12:39.562Z,11.13
2018-12-07T04:16:52.210Z,11.10
2018-12-07T04:21:11.062Z,11.11
2018-12-07T04:25:27.114Z,11.08
2018-12-07T04:29:42.422Z,11.08
2018-12-07T04:33:53.128Z,11.08
2018-12-07T04:38:05.863Z,11.04
2018-12-07T04:42:14.884Z,11.02
2018-12-07T04:46:26.784Z,11.03
2018-12-07T04:50:40.439Z,10.99
2018-12-07T04:54:56.148Z,10.99
2018-12-07T04:59:05.670Z,10.99
2018-12-07T05:03:26.262Z,10.98
2018-12-07T05:07:35.557Z,10.98
2018-12-07T05:11:44.987Z,10.99
2018-12-07T05:15:57.689Z,10.97
2018-12-07T05:20:17.957Z,10.99
2018-12-07T05:24:34.501Z,10.98
2018-12-07T05:28:52.943Z,10.98
2018-12-07T05:33:08.345Z,10.97
2018-12-07T05:37:24.295Z,10.98
2018-12-07T05:41:40.569Z,10.98
2018-12-07T05:45:55.812Z,10.99
2018-12-07T05:50:03.460Z,11.01
2018-12-07T05:54:17.093Z,11.01
2018-12-07T05:58:34.087Z,11.01
2018-12-07T06:02:44.004Z,11.01
2018-12-07T06:06:52.969Z,11.01
2018-12-07T06:11:09.350Z,11.02
2018-12-07T06:15:21.149Z,11.01
2018-12-07T06:19:30.282Z,11.02
2018-12-07T06:23:46.379Z,11.01
2018-12-07T06:27:57.713Z,11.03
2018-12-07T06:32:07.150Z,11.04
2018-12-07T06:36:21.680Z,11.03
2018-12-07T06:40:38.803Z,11.05
2018-12-07T06:44:54.986Z,11.03
2018-12-07T06:49:27.886Z,11.05
2018-12-07T06:53:40.535Z,11.03
2018-12-07T06:57:56.989Z,11.06
2018-12-07T07:02:07.269Z,11.06
2018-12-07T07:06:20.809Z,11.10
2018-12-07T07:10:30.691Z,11.07
2018-12-07T07:14:46.247Z,11.05
2018-12-07T07:18:57.127Z,11.07
2018-12-07T07:23:06.292Z,11.05
2018-12-07T07:27:19.204Z,11.10
2018-12-07T07:31:30.122Z,11.12
2018-12-07T07:35:40.173Z,11.06
2018-12-07T07:39:50.114Z,11.03
2018-12-07T07:44:01.804Z,11.00
2018-12-07T07:48:13.541Z,11.00
2018-12-07T07:52:25.276Z,11.01
2018-12-07T07:56:36.926Z,11.00
2018-12-07T08:00:50.603Z,10.99
2018-12-07T08:05:03.303Z,10.98
2018-12-07T08:09:16.677Z,11.00
2018-12-07T08:13:31.109Z,10.97
2018-12-07T08:17:46.830Z,10.95
2018-12-07T08:21:59.592Z,10.97
2018-12-07T08:26:10.698Z,10.96
2018-12-07T08:30:26.617Z,10.94
2018-12-07T08:34:43.891Z,10.94
2018-12-07T08:38:59.170Z,10.99
2018-12-07T08:43:16.489Z,11.00
2018-12-07T08:47:27.272Z,11.02
2018-12-07T08:51:48.133Z,11.12
2018-12-07T08:56:00.747Z,11.08
2018-12-07T09:00:17.483Z,11.14
